Weather at Halim Perdanakusuma International Airport

Public forecast

Using degrees Celsius for public forecast. Weather courtesy of forecast.io.

Closest aviation weather report (METAR) to Halim Perdanakusuma International Airport

Closest report is Soekarno-Hatta International Airport, 16.4 nm (30.3 km) WNW.

2022/12/02 00:30 (retrieved 4 minutes ago)

WIII 020030Z 24003KT 7000 FEW020 26/24 Q1008 NOSIG

Closest aviation forecast (TAF) to Halim Perdanakusuma International Airport

Forecast is more than 6 hours old.

Closest forecast is Ngurah Rai (Bali) International Airport, 514.6 nm (953.1 km) ESE.

2022/12/01 18:06 (retrieved 6 hours ago)

TAF TAF WADD 011700Z 0118/0218 VRB05KT 9999 SCT016 BECMG 0201/0203 25010KT